sensor_id;sensor_type;location;lat;lon;timestamp;P1;durP1;ratioP1;P2;durP2;ratioP2
20391;SDS011;10355;53.688;10.078;2024-02-14T00:01:43;3.75;;;1.50;;
20391;SDS011;10355;53.688;10.078;2024-02-14T00:04:26;4.75;;;1.60;;
20391;SDS011;10355;53.688;10.078;2024-02-14T00:07:09;2.95;;;1.40;;
20391;SDS011;10355;53.688;10.078;2024-02-14T00:09:52;2.50;;;1.30;;
20391;SDS011;10355;53.688;10.078;2024-02-14T00:12:34;5.93;;;1.42;;
20391;SDS011;10355;53.688;10.078;2024-02-14T00:15:18;2.90;;;1.42;;
20391;SDS011;10355;53.688;10.078;2024-02-14T00:18:02;2.63;;;1.20;;
20391;SDS011;10355;53.688;10.078;2024-02-14T00:20:45;2.08;;;1.30;;
20391;SDS011;10355;53.688;10.078;2024-02-14T00:23:28;3.53;;;1.52;;
20391;SDS011;10355;53.688;10.078;2024-02-14T00:26:11;3.55;;;1.63;;
20391;SDS011;10355;53.688;10.078;2024-02-14T00:28:54;3.42;;;1.40;;
20391;SDS011;10355;53.688;10.078;2024-02-14T00:31:37;2.30;;;1.23;;
20391;SDS011;10355;53.688;10.078;2024-02-14T00:34:22;5.10;;;1.60;;
20391;SDS011;10355;53.688;10.078;2024-02-14T00:37:06;1.88;;;1.23;;
20391;SDS011;10355;53.688;10.078;2024-02-14T00:39:48;4.25;;;1.50;;
20391;SDS011;10355;53.688;10.078;2024-02-14T00:42:33;4.68;;;1.55;;
20391;SDS011;10355;53.688;10.078;2024-02-14T00:45:16;1.80;;;1.15;;
20391;SDS011;10355;53.688;10.078;2024-02-14T00:47:59;3.85;;;1.33;;
20391;SDS011;10355;53.688;10.078;2024-02-14T00:50:43;3.72;;;1.25;;
20391;SDS011;10355;53.688;10.078;2024-02-14T00:53:26;2.17;;;1.30;;
20391;SDS011;10355;53.688;10.078;2024-02-14T00:56:09;4.25;;;1.20;;
20391;SDS011;10355;53.688;10.078;2024-02-14T00:58:52;4.57;;;1.63;;
20391;SDS011;10355;53.688;10.078;2024-02-14T01:01:34;5.15;;;1.30;;
20391;SDS011;10355;53.688;10.078;2024-02-14T01:04:17;5.93;;;1.40;;
20391;SDS011;10355;53.688;10.078;2024-02-14T01:07:01;2.92;;;1.25;;
20391;SDS011;10355;53.688;10.078;2024-02-14T01:09:44;1.83;;;1.13;;
20391;SDS011;10355;53.688;10.078;2024-02-14T01:12:27;2.78;;;1.27;;
20391;SDS011;10355;53.688;10.078;2024-02-14T01:15:11;3.83;;;1.52;;
20391;SDS011;10355;53.688;10.078;2024-02-14T01:17:54;3.72;;;1.23;;
20391;SDS011;10355;53.688;10.078;2024-02-14T01:20:36;2.03;;;1.15;;
20391;SDS011;10355;53.688;10.078;2024-02-14T01:23:21;3.83;;;1.50;;
20391;SDS011;10355;53.688;10.078;2024-02-14T01:26:04;2.20;;;1.20;;
20391;SDS011;10355;53.688;10.078;2024-02-14T01:28:46;2.25;;;1.00;;
20391;SDS011;10355;53.688;10.078;2024-02-14T01:31:29;2.83;;;1.27;;
20391;SDS011;10355;53.688;10.078;2024-02-14T01:34:13;2.78;;;1.13;;
20391;SDS011;10355;53.688;10.078;2024-02-14T01:36:56;3.58;;;1.40;;
20391;SDS011;10355;53.688;10.078;2024-02-14T01:39:40;4.72;;;1.38;;
20391;SDS011;10355;53.688;10.078;2024-02-14T01:42:23;3.63;;;1.42;;
20391;SDS011;10355;53.688;10.078;2024-02-14T01:45:06;2.85;;;1.33;;
20391;SDS011;10355;53.688;10.078;2024-02-14T01:47:49;4.15;;;1.27;;
20391;SDS011;10355;53.688;10.078;2024-02-14T01:50:33;2.38;;;1.30;;
20391;SDS011;10355;53.688;10.078;2024-02-14T01:53:17;2.88;;;1.30;;
20391;SDS011;10355;53.688;10.078;2024-02-14T01:56:01;4.10;;;1.27;;
20391;SDS011;10355;53.688;10.078;2024-02-14T01:58:45;4.18;;;1.50;;
20391;SDS011;10355;53.688;10.078;2024-02-14T02:01:28;4.78;;;1.48;;
20391;SDS011;10355;53.688;10.078;2024-02-14T02:04:11;3.88;;;1.30;;
20391;SDS011;10355;53.688;10.078;2024-02-14T02:06:54;3.10;;;1.25;;
20391;SDS011;10355;53.688;10.078;2024-02-14T02:09:38;2.10;;;1.27;;
20391;SDS011;10355;53.688;10.078;2024-02-14T02:12:22;3.53;;;1.35;;
20391;SDS011;10355;53.688;10.078;2024-02-14T02:15:08;2.05;;;1.10;;
20391;SDS011;10355;53.688;10.078;2024-02-14T02:17:54;4.78;;;1.58;;
20391;SDS011;10355;53.688;10.078;2024-02-14T02:20:37;1.35;;;0.95;;
20391;SDS011;10355;53.688;10.078;2024-02-14T02:23:22;2.53;;;1.42;;
20391;SDS011;10355;53.688;10.078;2024-02-14T02:26:07;2.50;;;1.27;;
20391;SDS011;10355;53.688;10.078;2024-02-14T02:28:50;3.55;;;1.40;;
20391;SDS011;10355;53.688;10.078;2024-02-14T02:31:32;4.43;;;1.60;;
20391;SDS011;10355;53.688;10.078;2024-02-14T02:34:15;2.50;;;1.17;;
20391;SDS011;10355;53.688;10.078;2024-02-14T02:36:59;2.13;;;1.25;;
20391;SDS011;10355;53.688;10.078;2024-02-14T02:39:43;1.90;;;1.20;;
20391;SDS011;10355;53.688;10.078;2024-02-14T02:42:26;2.97;;;1.50;;
20391;SDS011;10355;53.688;10.078;2024-02-14T02:45:10;2.92;;;1.25;;
20391;SDS011;10355;53.688;10.078;2024-02-14T02:47:53;3.78;;;1.40;;
20391;SDS011;10355;53.688;10.078;2024-02-14T02:50:37;3.38;;;1.30;;
20391;SDS011;10355;53.688;10.078;2024-02-14T02:53:20;1.90;;;1.35;;
20391;SDS011;10355;53.688;10.078;2024-02-14T02:56:04;2.00;;;1.20;;
20391;SDS011;10355;53.688;10.078;2024-02-14T02:58:47;3.20;;;1.30;;
20391;SDS011;10355;53.688;10.078;2024-02-14T03:01:34;4.93;;;1.42;;
20391;SDS011;10355;53.688;10.078;2024-02-14T03:04:17;2.03;;;1.33;;
20391;SDS011;10355;53.688;10.078;2024-02-14T03:07:00;4.43;;;1.42;;
20391;SDS011;10355;53.688;10.078;2024-02-14T03:09:45;2.13;;;1.42;;
20391;SDS011;10355;53.688;10.078;2024-02-14T03:12:29;3.38;;;1.60;;
20391;SDS011;10355;53.688;10.078;2024-02-14T03:15:14;3.95;;;1.38;;
20391;SDS011;10355;53.688;10.078;2024-02-14T03:17:57;3.70;;;2.25;;
20391;SDS011;10355;53.688;10.078;2024-02-14T03:20:40;7.07;;;3.72;;
20391;SDS011;10355;53.688;10.078;2024-02-14T03:23:22;7.97;;;4.75;;
20391;SDS011;10355;53.688;10.078;2024-02-14T03:26:05;10.90;;;6.32;;
20391;SDS011;10355;53.688;10.078;2024-02-14T03:28:50;13.73;;;6.55;;
20391;SDS011;10355;53.688;10.078;2024-02-14T03:31:35;13.23;;;7.70;;
20391;SDS011;10355;53.688;10.078;2024-02-14T03:34:17;13.63;;;7.65;;
20391;SDS011;10355;53.688;10.078;2024-02-14T03:37:01;9.07;;;6.18;;
20391;SDS011;10355;53.688;10.078;2024-02-14T03:39:44;7.55;;;5.45;;
20391;SDS011;10355;53.688;10.078;2024-02-14T03:42:28;6.63;;;4.65;;
20391;SDS011;10355;53.688;10.078;2024-02-14T03:45:12;7.63;;;4.30;;
20391;SDS011;10355;53.688;10.078;2024-02-14T03:47:55;7.43;;;4.40;;
20391;SDS011;10355;53.688;10.078;2024-02-14T03:50:39;6.28;;;4.28;;
20391;SDS011;10355;53.688;10.078;2024-02-14T03:53:21;6.45;;;4.03;;
20391;SDS011;10355;53.688;10.078;2024-02-14T03:56:04;6.22;;;4.00;;
20391;SDS011;10355;53.688;10.078;2024-02-14T03:58:48;7.45;;;3.65;;
20391;SDS011;10355;53.688;10.078;2024-02-14T04:01:33;5.30;;;3.35;;
20391;SDS011;10355;53.688;10.078;2024-02-14T04:04:17;6.07;;;2.67;;
20391;SDS011;10355;53.688;10.078;2024-02-14T04:07:00;4.13;;;2.10;;
20391;SDS011;10355;53.688;10.078;2024-02-14T04:09:43;3.35;;;2.28;;
20391;SDS011;10355;53.688;10.078;2024-02-14T04:12:26;3.97;;;1.50;;
20391;SDS011;10355;53.688;10.078;2024-02-14T04:15:10;4.03;;;1.60;;
20391;SDS011;10355;53.688;10.078;2024-02-14T04:17:54;2.65;;;1.60;;
20391;SDS011;10355;53.688;10.078;2024-02-14T04:20:37;2.65;;;1.70;;
20391;SDS011;10355;53.688;10.078;2024-02-14T04:23:20;3.53;;;1.65;;
20391;SDS011;10355;53.688;10.078;2024-02-14T04:26:04;2.25;;;1.40;;
20391;SDS011;10355;53.688;10.078;2024-02-14T04:28:46;3.03;;;1.30;;
20391;SDS011;10355;53.688;10.078;2024-02-14T04:31:29;2.40;;;1.50;;
20391;SDS011;10355;53.688;10.078;2024-02-14T04:34:14;2.28;;;1.48;;
20391;SDS011;10355;53.688;10.078;2024-02-14T04:36:58;2.60;;;1.40;;
20391;SDS011;10355;53.688;10.078;2024-02-14T04:39:41;2.40;;;1.60;;
20391;SDS011;10355;53.688;10.078;2024-02-14T04:42:24;2.97;;;1.70;;
20391;SDS011;10355;53.688;10.078;2024-02-14T04:45:07;2.42;;;1.55;;
20391;SDS011;10355;53.688;10.078;2024-02-14T04:47:50;2.90;;;1.65;;
20391;SDS011;10355;53.688;10.078;2024-02-14T04:50:35;4.25;;;1.85;;
20391;SDS011;10355;53.688;10.078;2024-02-14T04:53:18;2.85;;;1.70;;
20391;SDS011;10355;53.688;10.078;2024-02-14T04:56:03;4.13;;;1.42;;
20391;SDS011;10355;53.688;10.078;2024-02-14T04:58:45;2.55;;;1.30;;
20391;SDS011;10355;53.688;10.078;2024-02-14T05:01:28;2.17;;;1.23;;
20391;SDS011;10355;53.688;10.078;2024-02-14T05:04:11;2.08;;;1.38;;
20391;SDS011;10355;53.688;10.078;2024-02-14T05:06:55;3.30;;;1.40;;
20391;SDS011;10355;53.688;10.078;2024-02-14T05:09:40;2.55;;;1.40;;
20391;SDS011;10355;53.688;10.078;2024-02-14T05:12:23;2.83;;;1.40;;
20391;SDS011;10355;53.688;10.078;2024-02-14T05:15:06;2.17;;;1.40;;
20391;SDS011;10355;53.688;10.078;2024-02-14T05:17:49;1.75;;;1.60;;
20391;SDS011;10355;53.688;10.078;2024-02-14T05:20:32;2.80;;;1.40;;
20391;SDS011;10355;53.688;10.078;2024-02-14T05:23:16;2.15;;;1.48;;
20391;SDS011;10355;53.688;10.078;2024-02-14T05:25:59;3.00;;;1.70;;
20391;SDS011;10355;53.688;10.078;2024-02-14T05:28:42;2.78;;;1.50;;
20391;SDS011;10355;53.688;10.078;2024-02-14T05:31:29;2.95;;;1.70;;
20391;SDS011;10355;53.688;10.078;2024-02-14T05:34:24;2.85;;;1.63;;
20391;SDS011;10355;53.688;10.078;2024-02-14T05:37:07;2.50;;;1.40;;
20391;SDS011;10355;53.688;10.078;2024-02-14T05:39:51;3.13;;;1.80;;
20391;SDS011;10355;53.688;10.078;2024-02-14T05:42:35;1.88;;;1.38;;
20391;SDS011;10355;53.688;10.078;2024-02-14T05:45:17;2.90;;;1.50;;
20391;SDS011;10355;53.688;10.078;2024-02-14T05:48:00;2.78;;;1.60;;
20391;SDS011;10355;53.688;10.078;2024-02-14T05:50:43;3.38;;;1.80;;
20391;SDS011;10355;53.688;10.078;2024-02-14T05:53:26;1.90;;;1.50;;
20391;SDS011;10355;53.688;10.078;2024-02-14T05:56:10;1.83;;;1.30;;
20391;SDS011;10355;53.688;10.078;2024-02-14T05:58:52;1.92;;;1.40;;
20391;SDS011;10355;53.688;10.078;2024-02-14T06:01:35;2.35;;;1.70;;
20391;SDS011;10355;53.688;10.078;2024-02-14T06:04:18;2.20;;;1.65;;
20391;SDS011;10355;53.688;10.078;2024-02-14T06:07:01;1.70;;;1.40;;
20391;SDS011;10355;53.688;10.078;2024-02-14T06:09:44;2.05;;;1.67;;
20391;SDS011;10355;53.688;10.078;2024-02-14T06:12:28;1.75;;;1.40;;
20391;SDS011;10355;53.688;10.078;2024-02-14T06:15:12;3.25;;;1.70;;
20391;SDS011;10355;53.688;10.078;2024-02-14T06:17:55;2.83;;;1.60;;
20391;SDS011;10355;53.688;10.078;2024-02-14T06:20:37;2.15;;;1.50;;
20391;SDS011;10355;53.688;10.078;2024-02-14T06:23:20;2.00;;;1.38;;
20391;SDS011;10355;53.688;10.078;2024-02-14T06:26:03;2.50;;;1.70;;
20391;SDS011;10355;53.688;10.078;2024-02-14T06:28:47;3.20;;;1.70;;
20391;SDS011;10355;53.688;10.078;2024-02-14T06:31:35;1.73;;;1.40;;
20391;SDS011;10355;53.688;10.078;2024-02-14T06:34:18;2.85;;;1.67;;
20391;SDS011;10355;53.688;10.078;2024-02-14T06:37:01;2.30;;;1.45;;
20391;SDS011;10355;53.688;10.078;2024-02-14T06:39:45;1.90;;;1.42;;
20391;SDS011;10355;53.688;10.078;2024-02-14T06:42:29;2.80;;;1.70;;
20391;SDS011;10355;53.688;10.078;2024-02-14T06:45:14;3.25;;;1.85;;
20391;SDS011;10355;53.688;10.078;2024-02-14T06:47:56;2.42;;;1.58;;
20391;SDS011;10355;53.688;10.078;2024-02-14T06:50:39;3.85;;;1.90;;
20391;SDS011;10355;53.688;10.078;2024-02-14T06:53:22;1.95;;;1.55;;
20391;SDS011;10355;53.688;10.078;2024-02-14T06:56:05;1.98;;;1.70;;
20391;SDS011;10355;53.688;10.078;2024-02-14T06:58:48;2.47;;;1.70;;
20391;SDS011;10355;53.688;10.078;2024-02-14T07:01:35;2.25;;;1.73;;
20391;SDS011;10355;53.688;10.078;2024-02-14T07:04:17;2.35;;;1.60;;
20391;SDS011;10355;53.688;10.078;2024-02-14T07:07:06;2.92;;;1.75;;
20391;SDS011;10355;53.688;10.078;2024-02-14T07:09:50;1.65;;;1.48;;
20391;SDS011;10355;53.688;10.078;2024-02-14T07:12:32;1.88;;;1.50;;
20391;SDS011;10355;53.688;10.078;2024-02-14T07:15:17;2.20;;;1.45;;
20391;SDS011;10355;53.688;10.078;2024-02-14T07:18:02;1.55;;;1.30;;
20391;SDS011;10355;53.688;10.078;2024-02-14T07:20:45;2.33;;;1.63;;
20391;SDS011;10355;53.688;10.078;2024-02-14T07:23:28;2.70;;;1.67;;
20391;SDS011;10355;53.688;10.078;2024-02-14T07:26:11;2.33;;;1.63;;
20391;SDS011;10355;53.688;10.078;2024-02-14T07:28:53;1.60;;;1.50;;
20391;SDS011;10355;53.688;10.078;2024-02-14T07:31:36;2.28;;;1.70;;
20391;SDS011;10355;53.688;10.078;2024-02-14T07:34:20;2.00;;;1.63;;
20391;SDS011;10355;53.688;10.078;2024-02-14T07:37:03;1.70;;;1.55;;
20391;SDS011;10355;53.688;10.078;2024-02-14T07:39:46;2.50;;;1.52;;
20391;SDS011;10355;53.688;10.078;2024-02-14T07:42:29;2.40;;;1.80;;
20391;SDS011;10355;53.688;10.078;2024-02-14T07:45:12;2.72;;;2.13;;
20391;SDS011;10355;53.688;10.078;2024-02-14T07:47:55;2.60;;;1.70;;
20391;SDS011;10355;53.688;10.078;2024-02-14T07:50:40;2.05;;;1.50;;
20391;SDS011;10355;53.688;10.078;2024-02-14T07:53:22;3.03;;;1.60;;
20391;SDS011;10355;53.688;10.078;2024-02-14T07:56:05;4.93;;;1.75;;
20391;SDS011;10355;53.688;10.078;2024-02-14T07:58:48;2.20;;;1.58;;
20391;SDS011;10355;53.688;10.078;2024-02-14T08:01:31;2.20;;;1.77;;
20391;SDS011;10355;53.688;10.078;2024-02-14T08:04:14;2.35;;;1.90;;
20391;SDS011;10355;53.688;10.078;2024-02-14T08:06:59;2.58;;;1.70;;
20391;SDS011;10355;53.688;10.078;2024-02-14T08:09:42;2.75;;;1.90;;
20391;SDS011;10355;53.688;10.078;2024-02-14T08:12:24;2.72;;;1.90;;
20391;SDS011;10355;53.688;10.078;2024-02-14T08:15:07;2.92;;;1.92;;
20391;SDS011;10355;53.688;10.078;2024-02-14T08:17:50;3.33;;;1.63;;
20391;SDS011;10355;53.688;10.078;2024-02-14T08:20:37;3.30;;;1.92;;
20391;SDS011;10355;53.688;10.078;2024-02-14T08:23:21;3.25;;;1.80;;
20391;SDS011;10355;53.688;10.078;2024-02-14T08:26:04;3.10;;;1.67;;
20391;SDS011;10355;53.688;10.078;2024-02-14T08:28:51;2.92;;;1.77;;
20391;SDS011;10355;53.688;10.078;2024-02-14T08:31:34;2.88;;;1.80;;
20391;SDS011;10355;53.688;10.078;2024-02-14T08:34:17;3.05;;;2.00;;
20391;SDS011;10355;53.688;10.078;2024-02-14T08:37:00;2.95;;;1.83;;
20391;SDS011;10355;53.688;10.078;2024-02-14T08:39:44;2.17;;;1.80;;
20391;SDS011;10355;53.688;10.078;2024-02-14T08:42:27;2.65;;;1.85;;
20391;SDS011;10355;53.688;10.078;2024-02-14T08:45:10;2.63;;;1.88;;
20391;SDS011;10355;53.688;10.078;2024-02-14T08:47:53;2.15;;;1.60;;
20391;SDS011;10355;53.688;10.078;2024-02-14T08:50:35;2.10;;;1.58;;
20391;SDS011;10355;53.688;10.078;2024-02-14T08:53:18;2.38;;;1.65;;
20391;SDS011;10355;53.688;10.078;2024-02-14T08:56:04;2.53;;;1.92;;
20391;SDS011;10355;53.688;10.078;2024-02-14T08:58:47;3.10;;;1.77;;
20391;SDS011;10355;53.688;10.078;2024-02-14T09:01:29;2.00;;;1.67;;
20391;SDS011;10355;53.688;10.078;2024-02-14T09:04:12;2.58;;;1.83;;
20391;SDS011;10355;53.688;10.078;2024-02-14T09:06:55;2.15;;;1.92;;
20391;SDS011;10355;53.688;10.078;2024-02-14T09:09:38;3.85;;;1.90;;
20391;SDS011;10355;53.688;10.078;2024-02-14T09:12:22;2.63;;;1.75;;
20391;SDS011;10355;53.688;10.078;2024-02-14T09:15:06;2.35;;;1.80;;
20391;SDS011;10355;53.688;10.078;2024-02-14T09:17:49;2.60;;;1.90;;
20391;SDS011;10355;53.688;10.078;2024-02-14T09:20:33;3.40;;;1.90;;
20391;SDS011;10355;53.688;10.078;2024-02-14T09:23:16;2.30;;;1.80;;
20391;SDS011;10355;53.688;10.078;2024-02-14T09:26:02;2.72;;;1.70;;
20391;SDS011;10355;53.688;10.078;2024-02-14T09:28:46;2.38;;;1.80;;
20391;SDS011;10355;53.688;10.078;2024-02-14T09:31:29;3.20;;;1.85;;
20391;SDS011;10355;53.688;10.078;2024-02-14T09:34:12;4.43;;;2.10;;
20391;SDS011;10355;53.688;10.078;2024-02-14T09:36:56;3.20;;;2.08;;
20391;SDS011;10355;53.688;10.078;2024-02-14T09:39:40;2.53;;;2.00;;
20391;SDS011;10355;53.688;10.078;2024-02-14T09:42:27;3.38;;;2.33;;
20391;SDS011;10355;53.688;10.078;2024-02-14T09:45:12;3.38;;;2.10;;
20391;SDS011;10355;53.688;10.078;2024-02-14T09:48:01;3.45;;;2.10;;
20391;SDS011;10355;53.688;10.078;2024-02-14T09:50:45;2.45;;;1.73;;
20391;SDS011;10355;53.688;10.078;2024-02-14T09:53:30;2.03;;;1.70;;
20391;SDS011;10355;53.688;10.078;2024-02-14T09:56:15;2.83;;;1.85;;
20391;SDS011;10355;53.688;10.078;2024-02-14T09:59:00;3.80;;;2.03;;
20391;SDS011;10355;53.688;10.078;2024-02-14T10:01:45;2.70;;;2.20;;
20391;SDS011;10355;53.688;10.078;2024-02-14T10:04:32;2.45;;;1.92;;
20391;SDS011;10355;53.688;10.078;2024-02-14T10:07:15;3.28;;;2.20;;
20391;SDS011;10355;53.688;10.078;2024-02-14T10:10:05;2.72;;;1.80;;
20391;SDS011;10355;53.688;10.078;2024-02-14T10:12:48;2.58;;;1.65;;
20391;SDS011;10355;53.688;10.078;2024-02-14T10:15:31;3.72;;;2.17;;
20391;SDS011;10355;53.688;10.078;2024-02-14T10:18:15;2.92;;;1.80;;
20391;SDS011;10355;53.688;10.078;2024-02-14T10:20:58;2.38;;;1.80;;
20391;SDS011;10355;53.688;10.078;2024-02-14T10:23:41;3.30;;;2.20;;
20391;SDS011;10355;53.688;10.078;2024-02-14T10:26:24;2.95;;;1.90;;
20391;SDS011;10355;53.688;10.078;2024-02-14T10:29:07;2.72;;;2.05;;
20391;SDS011;10355;53.688;10.078;2024-02-14T10:31:52;2.05;;;1.85;;
20391;SDS011;10355;53.688;10.078;2024-02-14T10:34:36;2.47;;;1.83;;
20391;SDS011;10355;53.688;10.078;2024-02-14T10:37:21;2.15;;;1.60;;
20391;SDS011;10355;53.688;10.078;2024-02-14T10:40:07;4.03;;;1.52;;
20391;SDS011;10355;53.688;10.078;2024-02-14T10:42:50;2.20;;;1.50;;
20391;SDS011;10355;53.688;10.078;2024-02-14T10:45:35;1.70;;;1.60;;
20391;SDS011;10355;53.688;10.078;2024-02-14T10:48:19;2.45;;;1.88;;
20391;SDS011;10355;53.688;10.078;2024-02-14T10:51:09;2.42;;;1.50;;
20391;SDS011;10355;53.688;10.078;2024-02-14T10:53:55;3.90;;;1.65;;
20391;SDS011;10355;53.688;10.078;2024-02-14T10:56:41;2.28;;;1.45;;
20391;SDS011;10355;53.688;10.078;2024-02-14T10:59:24;2.00;;;1.42;;
20391;SDS011;10355;53.688;10.078;2024-02-14T11:02:08;1.35;;;1.20;;
20391;SDS011;10355;53.688;10.078;2024-02-14T11:04:51;1.25;;;1.15;;
20391;SDS011;10355;53.688;10.078;2024-02-14T11:07:36;1.13;;;1.02;;
20391;SDS011;10355;53.688;10.078;2024-02-14T11:10:19;1.50;;;1.40;;
20391;SDS011;10355;53.688;10.078;2024-02-14T11:13:02;1.63;;;1.10;;
20391;SDS011;10355;53.688;10.078;2024-02-14T11:15:45;1.42;;;1.00;;
20391;SDS011;10355;53.688;10.078;2024-02-14T11:18:28;1.65;;;1.23;;
20391;SDS011;10355;53.688;10.078;2024-02-14T11:21:15;1.20;;;1.05;;
20391;SDS011;10355;53.688;10.078;2024-02-14T11:24:05;0.90;;;0.90;;
20391;SDS011;10355;53.688;10.078;2024-02-14T11:26:50;1.88;;;0.80;;
20391;SDS011;10355;53.688;10.078;2024-02-14T11:29:34;1.05;;;0.95;;
20391;SDS011;10355;53.688;10.078;2024-02-14T11:32:17;1.05;;;0.80;;
20391;SDS011;10355;53.688;10.078;2024-02-14T11:34:59;1.00;;;0.73;;
20391;SDS011;10355;53.688;10.078;2024-02-14T11:37:42;0.80;;;0.80;;
20391;SDS011;10355;53.688;10.078;2024-02-14T11:40:26;1.00;;;0.90;;
20391;SDS011;10355;53.688;10.078;2024-02-14T11:43:12;0.80;;;0.80;;
20391;SDS011;10355;53.688;10.078;2024-02-14T11:45:56;0.77;;;0.77;;
20391;SDS011;10355;53.688;10.078;2024-02-14T11:48:39;2.00;;;0.90;;
20391;SDS011;10355;53.688;10.078;2024-02-14T11:51:24;1.05;;;0.93;;
20391;SDS011;10355;53.688;10.078;2024-02-14T11:54:07;1.10;;;0.90;;
20391;SDS011;10355;53.688;10.078;2024-02-14T11:56:51;1.38;;;0.90;;
20391;SDS011;10355;53.688;10.078;2024-02-14T11:59:34;1.15;;;1.00;;
20391;SDS011;10355;53.688;10.078;2024-02-14T12:02:17;1.80;;;1.20;;
20391;SDS011;10355;53.688;10.078;2024-02-14T12:05:01;1.10;;;1.00;;
20391;SDS011;10355;53.688;10.078;2024-02-14T12:07:46;1.77;;;1.05;;
20391;SDS011;10355;53.688;10.078;2024-02-14T12:10:31;0.88;;;0.80;;
20391;SDS011;10355;53.688;10.078;2024-02-14T12:13:15;1.63;;;0.90;;
20391;SDS011;10355;53.688;10.078;2024-02-14T12:16:00;1.20;;;1.10;;
20391;SDS011;10355;53.688;10.078;2024-02-14T12:18:42;1.60;;;0.90;;
20391;SDS011;10355;53.688;10.078;2024-02-14T12:21:25;1.23;;;1.10;;
20391;SDS011;10355;53.688;10.078;2024-02-14T12:24:08;1.17;;;1.00;;
20391;SDS011;10355;53.688;10.078;2024-02-14T12:26:52;1.55;;;1.10;;
20391;SDS011;10355;53.688;10.078;2024-02-14T12:29:36;1.10;;;1.00;;
20391;SDS011;10355;53.688;10.078;2024-02-14T12:32:19;1.00;;;0.90;;
20391;SDS011;10355;53.688;10.078;2024-02-14T12:35:02;1.27;;;1.10;;
20391;SDS011;10355;53.688;10.078;2024-02-14T12:37:46;1.13;;;1.02;;
20391;SDS011;10355;53.688;10.078;2024-02-14T12:40:28;1.23;;;1.10;;
20391;SDS011;10355;53.688;10.078;2024-02-14T12:43:12;1.13;;;0.98;;
20391;SDS011;10355;53.688;10.078;2024-02-14T12:45:56;1.45;;;1.10;;
20391;SDS011;10355;53.688;10.078;2024-02-14T12:48:40;1.40;;;1.00;;
20391;SDS011;10355;53.688;10.078;2024-02-14T12:51:23;1.13;;;1.00;;
20391;SDS011;10355;53.688;10.078;2024-02-14T12:54:10;0.88;;;0.80;;
20391;SDS011;10355;53.688;10.078;2024-02-14T12:56:56;1.27;;;1.00;;
20391;SDS011;10355;53.688;10.078;2024-02-14T12:59:38;2.28;;;1.00;;
20391;SDS011;10355;53.688;10.078;2024-02-14T13:02:22;1.13;;;0.88;;
20391;SDS011;10355;53.688;10.078;2024-02-14T13:05:06;2.35;;;0.82;;
20391;SDS011;10355;53.688;10.078;2024-02-14T13:07:49;1.95;;;1.02;;
20391;SDS011;10355;53.688;10.078;2024-02-14T13:10:32;0.88;;;0.80;;
20391;SDS011;10355;53.688;10.078;2024-02-14T13:13:15;0.73;;;0.73;;
20391;SDS011;10355;53.688;10.078;2024-02-14T13:15:58;1.08;;;0.98;;
20391;SDS011;10355;53.688;10.078;2024-02-14T13:18:42;1.63;;;0.90;;
20391;SDS011;10355;53.688;10.078;2024-02-14T13:21:25;1.20;;;0.80;;
20391;SDS011;10355;53.688;10.078;2024-02-14T13:24:08;1.42;;;0.75;;
20391;SDS011;10355;53.688;10.078;2024-02-14T13:26:54;1.83;;;0.93;;
20391;SDS011;10355;53.688;10.078;2024-02-14T13:29:39;1.30;;;1.00;;
20391;SDS011;10355;53.688;10.078;2024-02-14T13:32:22;1.45;;;1.05;;
20391;SDS011;10355;53.688;10.078;2024-02-14T13:35:06;1.25;;;0.95;;
20391;SDS011;10355;53.688;10.078;2024-02-14T13:37:49;1.17;;;0.93;;
20391;SDS011;10355;53.688;10.078;2024-02-14T13:40:32;1.50;;;1.13;;
20391;SDS011;10355;53.688;10.078;2024-02-14T13:43:15;2.53;;;1.35;;
20391;SDS011;10355;53.688;10.078;2024-02-14T13:45:59;1.58;;;1.48;;
20391;SDS011;10355;53.688;10.078;2024-02-14T13:48:42;2.60;;;1.60;;
20391;SDS011;10355;53.688;10.078;2024-02-14T13:51:26;1.58;;;1.40;;
20391;SDS011;10355;53.688;10.078;2024-02-14T13:54:09;2.28;;;1.40;;
20391;SDS011;10355;53.688;10.078;2024-02-14T13:56:52;2.08;;;1.60;;
20391;SDS011;10355;53.688;10.078;2024-02-14T13:59:36;2.65;;;1.80;;
20391;SDS011;10355;53.688;10.078;2024-02-14T14:02:19;3.20;;;1.83;;
20391;SDS011;10355;53.688;10.078;2024-02-14T14:05:02;2.30;;;1.92;;
20391;SDS011;10355;53.688;10.078;2024-02-14T14:07:46;2.90;;;2.00;;
20391;SDS011;10355;53.688;10.078;2024-02-14T14:10:39;2.22;;;1.95;;
20391;SDS011;10355;53.688;10.078;2024-02-14T14:13:23;2.80;;;1.95;;
20391;SDS011;10355;53.688;10.078;2024-02-14T14:16:10;2.20;;;1.80;;
20391;SDS011;10355;53.688;10.078;2024-02-14T14:18:53;4.63;;;2.30;;
20391;SDS011;10355;53.688;10.078;2024-02-14T14:21:36;3.28;;;1.98;;
20391;SDS011;10355;53.688;10.078;2024-02-14T14:24:21;2.38;;;1.80;;
20391;SDS011;10355;53.688;10.078;2024-02-14T14:27:05;2.97;;;2.30;;
20391;SDS011;10355;53.688;10.078;2024-02-14T14:29:50;3.67;;;2.40;;
20391;SDS011;10355;53.688;10.078;2024-02-14T14:32:33;3.05;;;2.05;;
20391;SDS011;10355;53.688;10.078;2024-02-14T14:35:16;4.03;;;2.30;;
20391;SDS011;10355;53.688;10.078;2024-02-14T14:37:58;3.20;;;2.20;;
20391;SDS011;10355;53.688;10.078;2024-02-14T14:40:43;4.40;;;2.47;;
20391;SDS011;10355;53.688;10.078;2024-02-14T14:43:27;2.65;;;2.10;;
20391;SDS011;10355;53.688;10.078;2024-02-14T14:46:09;3.67;;;2.30;;
20391;SDS011;10355;53.688;10.078;2024-02-14T14:48:53;3.33;;;2.30;;
20391;SDS011;10355;53.688;10.078;2024-02-14T14:51:36;3.38;;;2.30;;
20391;SDS011;10355;53.688;10.078;2024-02-14T14:54:19;2.33;;;2.00;;
20391;SDS011;10355;53.688;10.078;2024-02-14T14:57:06;2.75;;;2.03;;
20391;SDS011;10355;53.688;10.078;2024-02-14T14:59:55;5.72;;;2.35;;
20391;SDS011;10355;53.688;10.078;2024-02-14T15:02:38;3.63;;;2.13;;
20391;SDS011;10355;53.688;10.078;2024-02-14T15:05:23;3.88;;;2.10;;
20391;SDS011;10355;53.688;10.078;2024-02-14T15:08:07;2.78;;;2.00;;
20391;SDS011;10355;53.688;10.078;2024-02-14T15:10:50;3.50;;;2.53;;
20391;SDS011;10355;53.688;10.078;2024-02-14T15:13:34;3.30;;;2.40;;
20391;SDS011;10355;53.688;10.078;2024-02-14T15:16:17;3.40;;;2.05;;
20391;SDS011;10355;53.688;10.078;2024-02-14T15:19:00;3.83;;;2.10;;
20391;SDS011;10355;53.688;10.078;2024-02-14T15:21:43;6.05;;;2.50;;
20391;SDS011;10355;53.688;10.078;2024-02-14T15:24:26;3.45;;;2.42;;
20391;SDS011;10355;53.688;10.078;2024-02-14T15:27:09;3.95;;;2.03;;
20391;SDS011;10355;53.688;10.078;2024-02-14T15:29:56;2.97;;;2.50;;
20391;SDS011;10355;53.688;10.078;2024-02-14T15:32:57;4.05;;;2.50;;
20391;SDS011;10355;53.688;10.078;2024-02-14T15:35:58;3.78;;;2.50;;
20391;SDS011;10355;53.688;10.078;2024-02-14T15:38:41;3.42;;;2.67;;
20391;SDS011;10355;53.688;10.078;2024-02-14T15:41:24;3.20;;;2.60;;
20391;SDS011;10355;53.688;10.078;2024-02-14T15:44:07;3.97;;;2.80;;
20391;SDS011;10355;53.688;10.078;2024-02-14T15:46:51;3.55;;;2.45;;
20391;SDS011;10355;53.688;10.078;2024-02-14T15:49:34;4.28;;;2.53;;
20391;SDS011;10355;53.688;10.078;2024-02-14T15:52:17;3.00;;;2.45;;
20391;SDS011;10355;53.688;10.078;2024-02-14T15:55:01;3.42;;;2.40;;
20391;SDS011;10355;53.688;10.078;2024-02-14T15:57:44;3.10;;;2.22;;
20391;SDS011;10355;53.688;10.078;2024-02-14T16:00:27;3.63;;;2.70;;
20391;SDS011;10355;53.688;10.078;2024-02-14T16:03:12;3.78;;;2.65;;
20391;SDS011;10355;53.688;10.078;2024-02-14T16:05:55;3.55;;;2.83;;
20391;SDS011;10355;53.688;10.078;2024-02-14T16:08:39;3.92;;;2.95;;
20391;SDS011;10355;53.688;10.078;2024-02-14T16:11:22;3.63;;;2.70;;